Time;durP1;ratioP1;P1;durP2;ratioP2;P2;SDS_P1;SDS_P2;PMS_P1;PMS_P2;Temp;Humidity;BMP_temperature;BMP_pressure;BME280_temperature;BME280_humidity;BME280_pressure;Samples;Min_cycle;Max_cycle;Signal;HPM_P1;HPM_P2
2023/01/17 15:53:35;;;;;;;8.27;4.28;;;;;;;-1.64;100.00;98039.81;4871148;29;20082;-96
2023/01/17 15:56:44;;;;;;;8.55;4.82;;;;;;;-1.81;100.00;98052.41;4852164;29;20040;-96
2023/01/17 16:00:11;;;;;;;;;;;;;;;;;;;;;
2023/01/17 16:03:16;;;;;;;8.15;4.38;;;;;;;-2.12;100.00;98050.44;4901715;29;20123;-96
2023/01/17 16:06:36;;;;;;;;;;;;;;;;;;;;;
2023/01/17 16:09:54;;;;;;;8.38;5.07;;;;;;;-2.30;100.00;98052.88;4884127;29;20120;-96
2023/01/17 16:12:55;;;;;;;10.25;5.05;;;;;;;-2.46;100.00;98060.31;4884344;29;20053;-96
2023/01/17 16:26:17;;;;;;;10.38;4.50;;;;;;;-2.77;100.00;98070.88;4831196;29;20030;-96
2023/01/17 16:29:40;;;;;;;9.82;4.93;;;;;;;-2.80;100.00;98093.72;4830241;29;20046;-96
2023/01/17 16:40:09;;;;;;;;;;;;;;;;;;;;;
2023/01/17 16:43:34;;;;;;;;;;;;;;;;;;;;;
2023/01/17 16:56:39;;;;;;;;;;;;;;;;;;;;;
2023/01/17 16:59:26;;;;;;;13.38;7.78;;;;;;;-3.50;100.00;98088.06;4833314;29;20125;-96
2023/01/17 17:02:16;;;;;;;12.02;7.03;;;;;;;-3.44;100.00;98092.03;4866540;29;20118;-95
2023/01/17 17:05:06;;;;;;;12.50;6.72;;;;;;;-3.51;100.00;98095.66;4865521;29;20033;-96
2023/01/17 17:23:41;;;;;;;16.20;9.25;;;;;;;-3.58;100.00;98143.00;4919681;29;20052;-96
2023/01/17 17:26:12;;;;;;;37.38;17.08;;;;;;;-3.83;100.00;98127.13;4905494;29;20056;-96
2023/01/17 17:28:38;;;;;;;56.08;26.60;;;;;;;-3.91;100.00;98120.66;4906590;29;20131;-94
2023/01/17 17:31:11;;;;;;;112.15;42.47;;;;;;;-3.90;100.00;98131.59;4909240;29;20066;-96
2023/01/17 17:33:48;;;;;;;60.92;25.25;;;;;;;-3.91;100.00;98134.97;4909568;29;20028;-96
2023/01/17 17:36:18;;;;;;;15.02;6.95;;;;;;;-3.75;100.00;98161.25;4919983;29;20062;-96
2023/01/17 17:38:53;;;;;;;13.43;6.47;;;;;;;-4.01;100.00;98137.00;4904445;29;20166;-96
2023/01/17 17:41:35;;;;;;;76.82;24.80;;;;;;;-4.07;100.00;98129.66;4905459;29;20028;-96
2023/01/17 17:44:05;;;;;;;44.00;17.65;;;;;;;-3.97;100.00;98155.34;4905036;29;20036;-96
2023/01/17 17:46:35;;;;;;;20.15;10.20;;;;;;;-4.04;100.00;98139.63;4912634;29;20032;-96
2023/01/17 17:49:07;;;;;;;13.40;6.88;;;;;;;-3.83;100.00;98187.59;4913128;29;20028;-96
2023/01/17 17:51:43;;;;;;;14.38;6.72;;;;;;;-3.78;100.00;98193.31;4912286;29;20025;-95
2023/01/17 17:54:13;;;;;;;15.52;8.40;;;;;;;-4.00;100.00;98156.28;4909812;29;20036;-96
2023/01/17 17:56:45;;;;;;;14.18;6.40;;;;;;;-4.11;100.00;98151.59;4904484;29;20538;-96
2023/01/17 17:59:17;;;;;;;39.42;12.38;;;;;;;-3.86;100.00;98186.00;4904778;29;20040;-96
2023/01/17 18:01:46;;;;;;;38.13;14.02;;;;;;;-4.02;100.00;98173.16;4904902;29;20407;-96
2023/01/17 18:04:24;;;;;;;40.88;15.18;;;;;;;-4.05;100.00;98178.28;4904768;29;20028;-95
2023/01/17 18:06:58;;;;;;;85.28;24.23;;;;;;;-4.16;100.00;98182.88;4904544;29;20036;-96
2023/01/17 18:09:32;;;;;;;53.60;20.63;;;;;;;-4.29;100.00;98177.44;4906678;29;20114;-96
2023/01/17 18:12:06;;;;;;;73.93;24.33;;;;;;;-4.36;100.00;98183.56;4904863;29;20036;-95
2023/01/17 18:14:33;;;;;;;45.75;18.17;;;;;;;-4.26;100.00;98204.22;4921880;29;20040;-96
2023/01/17 18:17:04;;;;;;;37.65;18.65;;;;;;;-4.43;100.00;98182.91;4904917;29;20047;-96
2023/01/17 18:19:30;;;;;;;20.17;10.88;;;;;;;-4.46;100.00;98193.09;4905474;29;20028;-96
2023/01/17 18:21:59;;;;;;;14.13;7.80;;;;;;;-4.34;100.00;98207.81;4905459;29;20133;-96
2023/01/17 18:24:35;;;;;;;44.75;14.88;;;;;;;-4.42;100.00;98194.63;4904871;29;20479;-95
2023/01/17 18:27:29;;;;;;;69.72;24.08;;;;;;;-4.54;100.00;98190.00;4903544;29;20040;-96
2023/01/17 18:30:31;;;;;;;;;;;;;;;;;;;;;
2023/01/17 18:37:13;;;;;;;144.43;38.95;;;;;;;-4.67;100.00;98204.66;4870614;29;20044;-95
